createdAt,value
2019-05-10T00:02:06.596Z,5.40
2019-05-10T00:04:54.986Z,4.80
2019-05-10T00:07:43.176Z,5.03
2019-05-10T00:10:13.495Z,5.47
2019-05-10T00:12:48.298Z,5.83
2019-05-10T00:15:20.197Z,5.27
2019-05-10T00:17:51.458Z,5.40
2019-05-10T00:20:21.802Z,5.57
2019-05-10T00:22:52.040Z,5.73
2019-05-10T00:25:22.234Z,5.33
2019-05-10T00:27:52.268Z,5.43
2019-05-10T00:30:22.678Z,5.03
2019-05-10T00:32:53.305Z,5.93
2019-05-10T00:35:23.480Z,5.40
2019-05-10T00:37:53.870Z,5.53
2019-05-10T00:40:24.395Z,4.97
2019-05-10T00:42:54.702Z,5.70
2019-05-10T00:45:25.051Z,6.50
2019-05-10T00:47:55.268Z,5.40
2019-05-10T00:50:25.581Z,6.17
2019-05-10T00:52:55.626Z,6.40
2019-05-10T00:55:26.378Z,6.23
2019-05-10T00:57:56.522Z,5.63
2019-05-10T01:00:26.915Z,5.77
2019-05-10T01:02:57.415Z,6.13
2019-05-10T01:05:27.965Z,5.53
2019-05-10T01:07:58.734Z,6.07
2019-05-10T01:10:28.923Z,5.37
2019-05-10T01:12:59.356Z,6.07
2019-05-10T01:15:29.659Z,5.40
2019-05-10T01:17:59.692Z,6.20
2019-05-10T01:20:29.770Z,5.90
2019-05-10T01:22:59.900Z,5.80
2019-05-10T01:25:35.237Z,6.00
2019-05-10T01:28:01.715Z,6.13
2019-05-10T01:30:31.898Z,5.97
2019-05-10T01:33:02.014Z,5.87
2019-05-10T01:35:32.265Z,6.27
2019-05-10T01:38:02.619Z,6.20
2019-05-10T01:40:32.902Z,6.33
2019-05-10T01:43:03.302Z,5.93
2019-05-10T01:45:33.653Z,6.60
2019-05-10T01:48:03.857Z,6.30
2019-05-10T01:50:34.205Z,6.90
2019-05-10T01:53:04.432Z,7.17
2019-05-10T01:55:49.652Z,6.63
2019-05-10T01:58:06.774Z,6.57
2019-05-10T02:00:36.936Z,6.90
2019-05-10T02:03:06.960Z,6.80
2019-05-10T02:05:36.969Z,7.50
2019-05-10T02:08:07.176Z,7.23
2019-05-10T02:10:37.585Z,8.17
2019-05-10T02:13:07.938Z,8.13
2019-05-10T02:15:38.394Z,7.43
2019-05-10T02:18:08.622Z,7.83
2019-05-10T02:20:38.911Z,8.47
2019-05-10T02:23:10.338Z,8.17
2019-05-10T02:25:40.502Z,7.63
2019-05-10T02:28:10.675Z,8.07
2019-05-10T02:30:40.824Z,7.83
2019-05-10T02:33:10.860Z,8.90
2019-05-10T02:35:41.232Z,7.87
2019-05-10T02:38:11.543Z,7.83
2019-05-10T02:40:41.713Z,7.53
2019-05-10T02:43:11.937Z,8.47
2019-05-10T02:45:41.940Z,8.00
2019-05-10T02:48:12.269Z,7.90
2019-05-10T02:50:42.509Z,8.23
2019-05-10T02:53:12.752Z,8.30
2019-05-10T02:55:43.561Z,8.33
2019-05-10T02:58:15.385Z,8.07
2019-05-10T03:00:48.954Z,7.90
2019-05-10T03:03:20.587Z,8.90
2019-05-10T03:05:53.993Z,8.87
2019-05-10T03:08:24.546Z,8.50
2019-05-10T03:10:58.617Z,8.47
2019-05-10T03:13:29.586Z,8.43
2019-05-10T03:16:03.740Z,8.80
2019-05-10T03:18:34.102Z,10.40
2019-05-10T03:21:06.492Z,10.07
2019-05-10T03:23:36.724Z,10.40
2019-05-10T03:26:07.088Z,10.90
2019-05-10T03:28:37.442Z,10.33
2019-05-10T03:31:07.758Z,10.83
2019-05-10T03:33:38.232Z,10.73
2019-05-10T03:36:09.149Z,10.50
2019-05-10T03:38:39.592Z,11.53
2019-05-10T03:41:09.898Z,12.13
2019-05-10T03:43:39.978Z,10.70
2019-05-10T03:46:10.407Z,11.13
2019-05-10T03:48:40.751Z,12.10
2019-05-10T03:51:10.915Z,12.80
2019-05-10T03:53:41.247Z,12.50
2019-05-10T03:56:11.486Z,11.57
2019-05-10T03:58:41.993Z,11.70
2019-05-10T04:01:12.515Z,11.10
2019-05-10T04:03:42.679Z,12.43
2019-05-10T04:06:13.154Z,11.13
2019-05-10T04:08:43.674Z,12.10
2019-05-10T04:11:13.902Z,12.67
2019-05-10T04:13:43.825Z,12.67
2019-05-10T04:16:14.063Z,13.13
2019-05-10T04:18:44.142Z,13.23
2019-05-10T04:21:14.192Z,12.33
2019-05-10T04:23:44.499Z,14.07
2019-05-10T04:26:14.712Z,13.53
2019-05-10T04:28:44.945Z,14.57
2019-05-10T04:31:15.127Z,15.20
2019-05-10T04:33:45.820Z,17.70
2019-05-10T04:36:15.924Z,17.00
2019-05-10T04:38:46.252Z,17.67
2019-05-10T04:41:18.999Z,17.07
2019-05-10T04:43:50.292Z,17.17
2019-05-10T04:46:20.911Z,17.43
2019-05-10T04:48:51.534Z,18.97
2019-05-10T04:51:22.065Z,18.87
2019-05-10T04:53:52.268Z,18.47
2019-05-10T04:56:22.601Z,19.60
2019-05-10T04:58:53.037Z,18.23
2019-05-10T05:01:23.387Z,18.00
2019-05-10T05:03:53.541Z,20.03
2019-05-10T05:06:24.021Z,20.10
2019-05-10T05:08:54.955Z,19.50
2019-05-10T05:11:26.998Z,19.87
2019-05-10T05:13:57.338Z,20.30
2019-05-10T05:16:27.640Z,20.37
2019-05-10T05:18:58.022Z,19.50
2019-05-10T05:21:28.418Z,18.90
2019-05-10T05:23:58.639Z,18.97
2019-05-10T05:26:28.968Z,18.03
2019-05-10T05:28:59.532Z,17.23
2019-05-10T05:31:29.935Z,15.33
2019-05-10T05:34:04.806Z,15.70
2019-05-10T05:36:31.886Z,14.53
2019-05-10T05:39:02.099Z,14.20
2019-05-10T05:41:32.275Z,14.03
2019-05-10T05:44:02.461Z,12.73
2019-05-10T05:46:32.367Z,13.50
2019-05-10T05:49:02.527Z,13.97
2019-05-10T05:51:32.996Z,12.60
2019-05-10T05:54:04.317Z,13.47
2019-05-10T05:56:35.793Z,12.93
2019-05-10T05:59:08.775Z,13.17
2019-05-10T06:01:38.057Z,11.90
2019-05-10T06:04:12.513Z,12.83
2019-05-10T06:06:40.201Z,11.73
2019-05-10T06:09:10.889Z,10.53
2019-05-10T06:11:41.160Z,9.80
2019-05-10T06:14:12.864Z,9.27
2019-05-10T06:16:44.933Z,9.00
2019-05-10T06:19:19.880Z,9.73
2019-05-10T06:21:47.602Z,8.10
2019-05-10T06:24:18.102Z,10.10
2019-05-10T06:26:48.203Z,10.23
2019-05-10T06:29:19.906Z,10.23
2019-05-10T06:31:50.095Z,11.13
2019-05-10T06:34:20.296Z,11.90
2019-05-10T06:36:50.559Z,12.43
2019-05-10T06:39:20.890Z,11.03
2019-05-10T06:41:56.125Z,10.63
2019-05-10T06:44:24.938Z,11.23
2019-05-10T06:46:55.652Z,10.73
2019-05-10T06:49:26.105Z,10.67
2019-05-10T06:51:56.486Z,10.37
2019-05-10T06:54:26.620Z,10.20
2019-05-10T06:56:57.171Z,11.87
2019-05-10T06:59:27.306Z,10.10
2019-05-10T07:01:57.391Z,10.70
2019-05-10T07:04:27.570Z,10.90
2019-05-10T07:06:57.651Z,11.23
2019-05-10T07:09:27.860Z,11.10
2019-05-10T07:11:57.963Z,11.07
2019-05-10T07:14:28.138Z,10.80
2019-05-10T07:17:02.758Z,9.37
2019-05-10T07:19:34.771Z,8.90
2019-05-10T07:22:03.573Z,8.03
2019-05-10T07:24:33.787Z,9.20
2019-05-10T07:27:05.837Z,8.47
2019-05-10T07:29:43.434Z,8.53
2019-05-10T07:32:08.350Z,9.87
2019-05-10T07:34:38.607Z,8.70
2019-05-10T07:37:08.993Z,7.87
2019-05-10T07:39:39.177Z,8.43
2019-05-10T07:42:09.330Z,9.60
2019-05-10T07:44:41.414Z,9.53
2019-05-10T07:47:11.211Z,9.40
2019-05-10T07:49:41.320Z,9.67
2019-05-10T07:52:11.687Z,11.07
2019-05-10T07:54:45.402Z,10.47
2019-05-10T07:57:18.434Z,8.93
2019-05-10T07:59:50.912Z,9.77
2019-05-10T08:02:17.874Z,10.57
2019-05-10T08:04:51.312Z,10.00
2019-05-10T08:07:19.880Z,10.37
2019-05-10T08:09:49.969Z,11.03
2019-05-10T08:12:20.297Z,10.70
2019-05-10T08:14:53.502Z,9.93
2019-05-10T08:17:22.388Z,9.97
2019-05-10T08:19:52.503Z,9.67
2019-05-10T08:22:22.998Z,9.17
2019-05-10T08:24:56.288Z,8.73
2019-05-10T08:27:25.103Z,8.70
2019-05-10T08:30:17.782Z,7.77
2019-05-10T08:32:29.886Z,8.20
2019-05-10T08:34:59.361Z,8.53
2019-05-10T08:37:34.289Z,6.73
2019-05-10T08:40:03.148Z,7.07
2019-05-10T08:42:44.220Z,6.87
2019-05-10T08:45:08.880Z,7.60
2019-05-10T08:47:39.059Z,6.63
2019-05-10T08:50:26.030Z,5.37
2019-05-10T08:52:42.337Z,3.93
2019-05-10T08:55:12.692Z,4.47
2019-05-10T08:57:48.008Z,5.03
2019-05-10T09:00:15.526Z,5.03
2019-05-10T09:02:46.460Z,4.70
2019-05-10T09:05:22.660Z,4.27
2019-05-10T09:07:48.620Z,3.83
2019-05-10T09:10:21.942Z,3.20
2019-05-10T09:12:57.954Z,2.90
2019-05-10T09:15:23.495Z,2.40
2019-05-10T09:17:58.317Z,2.03
2019-05-10T09:20:26.584Z,1.90
2019-05-10T09:22:57.123Z,1.53
2019-05-10T09:25:30.866Z,1.90
2019-05-10T09:28:02.434Z,1.90
2019-05-10T09:30:36.110Z,1.77
2019-05-10T09:33:11.418Z,1.60
2019-05-10T09:35:39.108Z,1.60
2019-05-10T09:38:12.307Z,1.43
2019-05-10T09:40:50.794Z,1.63
2019-05-10T09:43:14.984Z,1.50
2019-05-10T09:45:47.900Z,1.87
2019-05-10T09:48:18.205Z,1.67
2019-05-10T09:50:48.346Z,1.70
2019-05-10T09:53:24.559Z,1.70
2019-05-10T09:55:55.207Z,1.43
2019-05-10T09:58:22.518Z,1.57
2019-05-10T10:00:52.850Z,1.23
2019-05-10T10:03:23.061Z,1.30
2019-05-10T10:05:55.311Z,1.20
2019-05-10T10:08:25.250Z,1.23
2019-05-10T10:11:01.169Z,1.03
2019-05-10T10:13:39.525Z,1.20
2019-05-10T10:16:03.905Z,1.00
2019-05-10T10:18:30.977Z,1.13
2019-05-10T10:21:01.232Z,1.77
2019-05-10T10:23:34.801Z,1.30
2019-05-10T10:26:03.326Z,1.20
2019-05-10T10:28:36.347Z,1.20
2019-05-10T10:31:08.451Z,1.03
2019-05-10T10:33:38.806Z,1.20
2019-05-10T10:36:10.801Z,1.30
2019-05-10T10:38:45.513Z,1.00
2019-05-10T10:41:18.479Z,1.30
2019-05-10T10:43:45.446Z,1.33
2019-05-10T10:46:17.678Z,1.43
2019-05-10T10:48:49.364Z,1.47
2019-05-10T10:51:20.021Z,1.30
2019-05-10T10:53:54.134Z,1.23
2019-05-10T10:56:22.776Z,1.50
2019-05-10T10:58:52.828Z,1.40
2019-05-10T11:01:25.612Z,1.50
2019-05-10T11:03:54.600Z,1.60
2019-05-10T11:06:25.096Z,1.53
2019-05-10T11:08:55.415Z,1.50
2019-05-10T11:11:30.820Z,1.43
2019-05-10T11:14:06.365Z,1.50
2019-05-10T11:16:30.398Z,1.80
2019-05-10T11:19:03.720Z,2.33
2019-05-10T11:21:33.397Z,1.70
2019-05-10T11:24:03.618Z,1.83
2019-05-10T11:26:36.741Z,2.17
2019-05-10T11:29:05.707Z,2.13
2019-05-10T11:31:36.064Z,1.80
2019-05-10T11:34:06.443Z,2.10
2019-05-10T11:36:40.407Z,1.90
2019-05-10T11:39:23.211Z,1.80
2019-05-10T11:41:40.524Z,1.70
2019-05-10T11:44:12.026Z,2.10
2019-05-10T11:46:42.509Z,1.43
2019-05-10T11:49:12.611Z,1.47
2019-05-10T11:51:42.715Z,1.40
2019-05-10T11:54:12.789Z,1.50
2019-05-10T11:56:42.789Z,1.60
2019-05-10T11:59:16.567Z,1.63
2019-05-10T12:01:57.246Z,1.77
2019-05-10T12:04:33.094Z,1.30
2019-05-10T12:06:52.612Z,1.47
2019-05-10T12:09:24.530Z,1.93
2019-05-10T12:11:56.557Z,1.80
2019-05-10T12:14:26.824Z,1.30
2019-05-10T12:16:57.049Z,1.73
2019-05-10T12:19:36.768Z,1.40
2019-05-10T12:22:03.564Z,1.23
2019-05-10T12:24:46.698Z,1.20
2019-05-10T12:27:18.473Z,1.27
2019-05-10T12:29:36.309Z,1.87
2019-05-10T12:32:10.428Z,1.50
2019-05-10T12:34:46.082Z,1.47
2019-05-10T12:37:13.683Z,1.40
2019-05-10T12:39:45.695Z,1.40
2019-05-10T12:42:16.280Z,1.20
2019-05-10T12:44:48.234Z,1.03
2019-05-10T12:47:21.319Z,0.90
2019-05-10T12:49:53.950Z,0.93
2019-05-10T12:52:28.389Z,1.63
2019-05-10T12:54:55.344Z,1.20
2019-05-10T12:57:26.080Z,1.30
2019-05-10T12:59:56.398Z,1.00
2019-05-10T13:02:27.299Z,1.33
2019-05-10T13:04:57.896Z,1.60
2019-05-10T13:07:27.872Z,1.10
2019-05-10T13:10:03.979Z,1.43
2019-05-10T13:12:30.017Z,1.10
2019-05-10T13:15:00.596Z,1.40
2019-05-10T13:17:31.043Z,1.47
2019-05-10T13:20:01.687Z,1.10
2019-05-10T13:22:36.685Z,1.03
2019-05-10T13:25:04.680Z,1.33
2019-05-10T13:27:34.899Z,1.60
2019-05-10T13:30:07.161Z,1.13
2019-05-10T13:32:37.508Z,1.17
2019-05-10T13:35:08.006Z,1.33
2019-05-10T13:37:38.253Z,1.50
2019-05-10T13:40:08.933Z,1.50
2019-05-10T13:42:45.764Z,1.60
2019-05-10T13:45:13.542Z,1.30
2019-05-10T13:47:47.060Z,1.47
2019-05-10T13:50:17.350Z,1.30
2019-05-10T13:52:47.622Z,1.17
2019-05-10T13:55:17.910Z,1.50
2019-05-10T13:57:48.142Z,1.53
2019-05-10T14:00:18.764Z,1.20
2019-05-10T14:02:48.986Z,1.00
2019-05-10T14:05:19.979Z,1.63
2019-05-10T14:07:53.087Z,2.60
2019-05-10T14:10:25.192Z,1.70
2019-05-10T14:13:02.132Z,1.97
2019-05-10T14:15:28.038Z,1.50
2019-05-10T14:17:58.566Z,1.40
2019-05-10T14:20:28.974Z,2.00
2019-05-10T14:22:59.455Z,1.80
2019-05-10T14:25:36.225Z,1.83
2019-05-10T14:28:01.417Z,2.07
2019-05-10T14:30:31.893Z,3.10
2019-05-10T14:33:02.106Z,2.17
2019-05-10T14:35:32.535Z,4.07
2019-05-10T14:38:08.705Z,3.00
2019-05-10T14:40:34.604Z,2.23
2019-05-10T14:43:04.880Z,1.80
2019-05-10T14:45:35.342Z,2.77
2019-05-10T14:48:06.367Z,1.83
2019-05-10T14:50:36.624Z,1.90
2019-05-10T14:53:06.744Z,2.00
2019-05-10T14:55:37.190Z,2.00
2019-05-10T14:58:07.630Z,2.10
2019-05-10T15:00:37.595Z,2.30
2019-05-10T15:03:07.951Z,3.07
2019-05-10T15:05:38.462Z,2.60
2019-05-10T15:08:08.616Z,2.30
2019-05-10T15:10:39.822Z,2.43
2019-05-10T15:13:11.364Z,2.20
2019-05-10T15:15:41.424Z,2.20
2019-05-10T15:18:11.662Z,2.53
2019-05-10T15:20:41.752Z,2.83
2019-05-10T15:23:12.302Z,2.87
2019-05-10T15:25:55.706Z,2.23
2019-05-10T15:28:14.557Z,2.77
2019-05-10T15:30:45.754Z,2.57
2019-05-10T15:33:16.981Z,2.60
2019-05-10T15:35:51.761Z,2.90
2019-05-10T15:38:19.236Z,2.70
2019-05-10T15:40:49.962Z,2.53
2019-05-10T15:43:20.456Z,2.40
2019-05-10T15:45:52.907Z,2.47
2019-05-10T15:48:24.533Z,2.33
2019-05-10T15:50:56.451Z,2.80
2019-05-10T15:53:27.386Z,2.70
2019-05-10T15:55:59.097Z,2.60
2019-05-10T15:58:30.715Z,2.60
2019-05-10T16:01:01.473Z,2.97
2019-05-10T16:03:31.742Z,2.30
2019-05-10T16:06:01.852Z,2.40
2019-05-10T16:08:32.098Z,3.27
2019-05-10T16:11:02.266Z,2.50
2019-05-10T16:13:32.490Z,2.80
2019-05-10T16:16:02.614Z,2.40
2019-05-10T16:18:40.103Z,3.00
2019-05-10T16:21:04.736Z,2.93
2019-05-10T16:23:34.866Z,2.20
2019-05-10T16:26:05.052Z,2.23
2019-05-10T16:28:35.356Z,2.50
2019-05-10T16:31:06.275Z,2.23
2019-05-10T16:33:36.679Z,2.13
2019-05-10T16:36:08.378Z,2.70
2019-05-10T16:38:38.610Z,2.43
2019-05-10T16:41:08.853Z,2.67
2019-05-10T16:43:39.048Z,2.30
2019-05-10T16:46:09.515Z,2.20
2019-05-10T16:48:39.829Z,2.67
2019-05-10T16:51:12.621Z,2.67
2019-05-10T16:53:43.653Z,2.50
2019-05-10T16:56:18.715Z,2.27
2019-05-10T16:58:47.675Z,2.40
2019-05-10T17:01:18.625Z,2.73
2019-05-10T17:03:51.208Z,2.70
2019-05-10T17:06:21.032Z,2.40
2019-05-10T17:08:51.221Z,2.90
2019-05-10T17:11:21.344Z,2.53
2019-05-10T17:13:51.644Z,3.23
2019-05-10T17:16:21.871Z,3.00
2019-05-10T17:18:55.223Z,2.33
2019-05-10T17:21:23.497Z,2.43
2019-05-10T17:23:53.539Z,2.73
2019-05-10T17:26:23.617Z,2.77
2019-05-10T17:28:53.678Z,2.90
2019-05-10T17:31:24.410Z,2.83
2019-05-10T17:33:54.524Z,2.50
2019-05-10T17:36:25.200Z,2.43
2019-05-10T17:38:55.731Z,2.73
2019-05-10T17:41:27.059Z,2.77
2019-05-10T17:43:57.165Z,2.33
2019-05-10T17:46:28.600Z,2.63
2019-05-10T17:48:58.665Z,2.90
2019-05-10T17:51:28.884Z,2.87
2019-05-10T17:54:01.677Z,2.80
2019-05-10T17:56:32.851Z,2.27
2019-05-10T17:59:05.764Z,2.73
2019-05-10T18:01:34.181Z,2.60
2019-05-10T18:04:04.411Z,2.60
2019-05-10T18:06:34.476Z,2.87
2019-05-10T18:09:06.729Z,3.50
2019-05-10T18:11:42.403Z,2.17
2019-05-10T18:14:12.562Z,2.53
2019-05-10T18:16:41.951Z,2.80
2019-05-10T18:19:13.507Z,3.43
2019-05-10T18:21:44.099Z,3.37
2019-05-10T18:24:14.258Z,2.97
2019-05-10T18:26:44.320Z,2.90
2019-05-10T18:29:14.477Z,2.70
2019-05-10T18:31:54.651Z,3.97
2019-05-10T18:34:16.696Z,3.00
2019-05-10T18:36:51.492Z,2.80
2019-05-10T18:39:18.661Z,2.53
2019-05-10T18:41:48.980Z,2.93
2019-05-10T18:44:19.554Z,2.80
2019-05-10T18:46:49.744Z,2.87
2019-05-10T18:49:19.865Z,2.60
2019-05-10T18:51:50.284Z,3.13
2019-05-10T18:54:20.559Z,3.60
2019-05-10T18:56:50.954Z,3.57
2019-05-10T18:59:21.108Z,3.83
2019-05-10T19:01:51.707Z,3.50
2019-05-10T19:04:21.973Z,4.10
2019-05-10T19:07:07.695Z,3.13
2019-05-10T19:09:24.109Z,3.80
2019-05-10T19:11:54.156Z,3.83
2019-05-10T19:14:29.550Z,4.47
2019-05-10T19:16:56.524Z,3.57
2019-05-10T19:19:26.656Z,4.17
2019-05-10T19:21:56.950Z,4.13
2019-05-10T19:24:30.418Z,3.20
2019-05-10T19:27:01.414Z,3.73
2019-05-10T19:29:30.457Z,3.63
2019-05-10T19:32:01.071Z,3.70
2019-05-10T19:34:31.383Z,3.93
2019-05-10T19:37:01.454Z,4.47
2019-05-10T19:39:31.595Z,4.43
2019-05-10T19:42:03.977Z,3.77
2019-05-10T19:44:34.807Z,3.63
2019-05-10T19:47:05.558Z,3.67
2019-05-10T19:49:35.987Z,3.63
2019-05-10T19:52:06.658Z,3.87
2019-05-10T19:54:37.262Z,4.13
2019-05-10T19:57:15.088Z,4.00
2019-05-10T19:59:43.930Z,4.23
2019-05-10T20:02:11.922Z,5.10
2019-05-10T20:04:42.758Z,4.10
2019-05-10T20:07:13.507Z,3.67
2019-05-10T20:09:45.748Z,4.10
2019-05-10T20:12:16.594Z,4.00
2019-05-10T20:14:47.500Z,4.23
2019-05-10T20:17:18.296Z,5.77
2019-05-10T20:19:49.250Z,4.70
2019-05-10T20:22:19.768Z,4.27
2019-05-10T20:24:49.761Z,4.47
2019-05-10T20:27:19.827Z,6.03
2019-05-10T20:29:52.014Z,4.70
2019-05-10T20:32:22.512Z,5.37
2019-05-10T20:34:52.967Z,5.17
2019-05-10T20:37:23.306Z,4.33
2019-05-10T20:39:53.648Z,4.80
2019-05-10T20:42:23.820Z,4.57
2019-05-10T20:45:06.577Z,4.93
2019-05-10T20:47:26.900Z,5.50
2019-05-10T20:49:57.285Z,4.87
2019-05-10T20:52:27.834Z,5.83
2019-05-10T20:54:58.114Z,5.57
2019-05-10T20:57:28.751Z,5.40
2019-05-10T20:59:59.515Z,5.23
2019-05-10T21:02:30.295Z,4.40
2019-05-10T21:05:00.545Z,4.10
2019-05-10T21:07:31.277Z,5.10
2019-05-10T21:10:01.777Z,4.63
2019-05-10T21:12:32.175Z,4.20
2019-05-10T21:15:02.304Z,3.80
2019-05-10T21:17:32.727Z,4.43
2019-05-10T21:20:02.991Z,4.47
2019-05-10T21:22:33.853Z,4.33
2019-05-10T21:25:07.342Z,3.80
2019-05-10T21:27:37.802Z,4.10
2019-05-10T21:30:08.190Z,4.40
2019-05-10T21:32:40.378Z,4.23
2019-05-10T21:35:11.917Z,4.60
2019-05-10T21:37:42.153Z,3.80
2019-05-10T21:40:12.771Z,3.70
2019-05-10T21:42:42.847Z,4.23
2019-05-10T21:45:13.192Z,4.87
2019-05-10T21:47:51.093Z,4.70
2019-05-10T21:50:15.539Z,3.90
2019-05-10T21:52:45.561Z,4.47
2019-05-10T21:55:16.842Z,5.33
2019-05-10T21:57:47.328Z,4.40
2019-05-10T22:00:19.498Z,4.60
2019-05-10T22:02:50.040Z,4.43
2019-05-10T22:05:20.234Z,4.80
2019-05-10T22:07:50.453Z,4.93
2019-05-10T22:10:20.736Z,4.90
2019-05-10T22:12:51.386Z,4.87
2019-05-10T22:15:21.670Z,5.37
2019-05-10T22:17:52.171Z,4.70
2019-05-10T22:20:22.829Z,4.70
2019-05-10T22:22:53.144Z,4.60
2019-05-10T22:25:24.215Z,4.67
2019-05-10T22:27:54.743Z,4.27
2019-05-10T22:30:25.770Z,4.77
2019-05-10T22:32:57.272Z,4.37
2019-05-10T22:35:27.479Z,4.60
2019-05-10T22:37:57.669Z,4.40
2019-05-10T22:40:27.862Z,4.70
2019-05-10T22:42:58.295Z,4.93
2019-05-10T22:45:29.338Z,4.93
2019-05-10T22:47:59.754Z,5.20
2019-05-10T22:50:30.362Z,4.93
2019-05-10T22:53:00.787Z,4.97
2019-05-10T22:55:31.141Z,4.93
2019-05-10T22:58:01.729Z,5.23
2019-05-10T23:00:32.168Z,4.50
2019-05-10T23:03:03.231Z,4.80
2019-05-10T23:05:33.762Z,4.77
2019-05-10T23:08:04.005Z,4.80
2019-05-10T23:10:34.369Z,4.50
2019-05-10T23:13:04.849Z,5.10
2019-05-10T23:18:04.497Z,4.60
2019-05-10T23:20:34.671Z,4.50
2019-05-10T23:23:04.910Z,4.87
2019-05-10T23:25:35.379Z,4.40
2019-05-10T23:28:05.872Z,4.10
2019-05-10T23:30:36.086Z,4.67
2019-05-10T23:33:06.330Z,4.80
2019-05-10T23:35:36.583Z,5.00
2019-05-10T23:38:07.071Z,5.27
2019-05-10T23:40:38.049Z,5.33
2019-05-10T23:43:09.315Z,4.30
2019-05-10T23:45:39.395Z,4.37
2019-05-10T23:48:09.886Z,5.03
2019-05-10T23:50:40.610Z,4.00
2019-05-10T23:53:11.006Z,4.73
2019-05-10T23:55:41.319Z,4.40
2019-05-10T23:58:11.825Z,5.10
